Asaph, PA

11:37 PM EDT on March 26, 2015 (GMT -0400)
West Hill | | Change Station
CLOSE
Current Station
Personal Weather Station
Location: Covington, PA
Elevation: 1528 ft
Nearby Weather Stations

Elev 1528 ft 41.75 °N, 77.11 °W | Updated 2 seconds ago

Overcast
Overcast
34.7 °F
Feels Like 35 °F
N
0.0
Wind Variable Wind from West
Gusts 1.0 mph

Today
High -- | Low -- °F
--% Chance of Precip.
Yesterday
High -- | Low -- °F
Precip. -- in
7:02 AM 7:27 PM
Waxing Crescent, 48% visible
Pressure 29.79 in
Visibility 10.0 miles
Clouds Scattered Clouds 1400 ft
Mostly Cloudy 2300 ft
Overcast 3600 ft
Windchill 35 °F
Dew Point 33 °F
Humidity 92%
Rainfall 0.28 in
Snow Depth Not available.
UV 0 out of 12
Pollen 3.70 out of 12
Air Quality Not available.
Flu Activity Not available.
SPECI KELM 270306Z AUTO 27004KT 10SM SCT014 BKN023 OVC036 02/02 A2979 RMK AO2 T00170017

More Conditions Fewer Conditions

Pressure 29.79 in
Visibility 10.0 miles
Clouds Scattered Clouds 1400 ft
Mostly Cloudy 2300 ft
Overcast 3600 ft
Windchill 35 °F
Dew Point 33 °F
Humidity 92%
Rainfall 0.28 in
Snow Depth Not available.
UV 0 out of 12
Pollen 3.70 out of 12
Air Quality Not available.
Flu Activity Not available.
SPECI KELM 270306Z AUTO 27004KT 10SM SCT014 BKN023 OVC036 02/02 A2979 RMK AO2 T00170017

More Conditions Fewer Conditions

10-Day Weather Forecast

Almanac

Astronomy

Mar. 26, 2015 Rise Set
Actual Time
Civil Twilight
Nautical Twilight
Astronomical Twilight
Moon
Length of Visible Light
Length of Day
Tomorrow will be .
, % of the Moon is Illuminated

Today's Extremes

State Highs State Lows

Community

WunderPhotos

Upload Photos

1,808,697 photos uploaded!

WunderBlogs® & News

Nearby

Air Quality

  Air Quality AQ Index Pollutant
Not available.

Snow Depth

Station Depth Elevation

Earthquake Activity

City Distance Mag. Time & Date
Minimum magnitude displayed is 2.5.

Coastal Water Temperatures

Place Temperature

Stations

Nearby Weather Stations

Station Location Temp. Windchill Dew Point Humidity Wind Precip. Elev Updated Type